createdAt,value
2023-06-11T00:02:40.696Z,66821.22
2023-06-11T00:07:44.899Z,66792.13
2023-06-11T00:12:50.544Z,66785.66
2023-06-11T00:17:54.814Z,66833.53
2023-06-11T00:22:58.992Z,66801.72
2023-06-11T00:28:05.826Z,66825.50
2023-06-11T00:33:09.948Z,66795.44
2023-06-11T00:38:14.215Z,66795.25
2023-06-11T00:43:22.544Z,66792.66
2023-06-11T00:48:27.119Z,66852.44
2023-06-11T00:53:31.710Z,66831.44
2023-06-11T00:58:37.879Z,66822.88
2023-06-11T01:03:42.576Z,66875.13
2023-06-11T01:08:54.474Z,66780.75
2023-06-11T01:14:04.042Z,66805.13
2023-06-11T01:19:21.309Z,66786.19
2023-06-11T01:24:34.968Z,66736.75
2023-06-11T01:29:46.658Z,66785.19
2023-06-11T01:34:51.626Z,66738.38
2023-06-11T01:39:59.144Z,66760.34
2023-06-11T01:45:20.636Z,66744.13
2023-06-11T01:50:24.915Z,66734.06
2023-06-11T01:55:29.250Z,66766.34
2023-06-11T02:00:34.883Z,66758.22
2023-06-11T02:05:38.853Z,66754.53
2023-06-11T02:10:45.179Z,66794.78
2023-06-11T02:15:50.846Z,66785.19
2023-06-11T02:20:54.845Z,66814.81
2023-06-11T02:25:59.509Z,66822.44
2023-06-11T02:31:05.784Z,66831.91
2023-06-11T02:36:11.285Z,66809.41
2023-06-11T02:41:16.792Z,66844.91
2023-06-11T02:46:22.484Z,66861.59
2023-06-11T02:51:26.663Z,66884.69
2023-06-11T02:56:31.034Z,66872.91
2023-06-11T03:06:43.083Z,66870.75
2023-06-11T03:11:47.380Z,66811.13
2023-06-11T03:16:53.057Z,66895.47
2023-06-11T03:21:57.527Z,66852.50
2023-06-11T03:27:01.896Z,66870.13
2023-06-11T03:32:12.817Z,66910.53
2023-06-11T03:37:19.881Z,66889.63
2023-06-11T03:42:24.593Z,66837.38
2023-06-11T03:47:30.755Z,66846.84
2023-06-11T03:52:35.345Z,66839.38
2023-06-11T03:57:39.538Z,66853.03
2023-06-11T04:02:45.097Z,66835.75
2023-06-11T04:07:53.933Z,66890.69
2023-06-11T04:12:58.341Z,66870.22
2023-06-11T04:18:04.185Z,66885.81
2023-06-11T04:23:09.205Z,66867.97
2023-06-11T04:28:17.337Z,66849.28
2023-06-11T04:33:34.410Z,66871.28
2023-06-11T04:38:46.474Z,66869.69
2023-06-11T04:43:53.484Z,66861.66
2023-06-11T04:49:01.440Z,66847.19
2023-06-11T04:54:08.729Z,66887.44
2023-06-11T04:59:17.750Z,66841.59
2023-06-11T05:04:24.934Z,66868.59
2023-06-11T05:09:30.311Z,66882.13
2023-06-11T05:14:34.462Z,66877.75
2023-06-11T05:19:40.709Z,66901.53
2023-06-11T05:24:44.567Z,66844.97
2023-06-11T05:29:53.383Z,66862.75
2023-06-11T05:34:59.215Z,66903.69
2023-06-11T05:40:04.988Z,66933.25
2023-06-11T05:45:09.990Z,66891.84
2023-06-11T05:50:16.163Z,66923.00
2023-06-11T05:55:21.310Z,66905.63
2023-06-11T06:00:25.736Z,66925.78
2023-06-11T06:05:33.437Z,66893.44
2023-06-11T06:10:38.028Z,66836.91
2023-06-11T06:15:43.317Z,66869.75
2023-06-11T06:20:50.046Z,66881.59
2023-06-11T06:25:54.336Z,66986.69
2023-06-11T06:30:58.781Z,66934.34
2023-06-11T06:36:05.253Z,66959.19
2023-06-11T06:41:10.017Z,66959.81
2023-06-11T06:46:14.340Z,67059.97
2023-06-11T06:51:21.779Z,67071.97
2023-06-11T06:56:28.220Z,67011.47
2023-06-11T07:01:32.357Z,66931.13
2023-06-11T07:06:38.477Z,67059.00
2023-06-11T07:11:43.346Z,67122.13
2023-06-11T07:16:47.491Z,67226.19
2023-06-11T07:21:53.362Z,67192.78
2023-06-11T07:26:58.242Z,67233.13
2023-06-11T07:32:02.499Z,67222.47
2023-06-11T07:37:08.658Z,67238.19
2023-06-11T07:42:12.706Z,67242.91
2023-06-11T07:47:17.803Z,67270.47
2023-06-11T07:52:23.917Z,67261.28
2023-06-11T07:57:28.475Z,67232.66
2023-06-11T08:02:32.725Z,67300.78
2023-06-11T08:07:38.645Z,67284.03
2023-06-11T08:12:43.785Z,67362.81
2023-06-11T08:17:48.359Z,67322.31
2023-06-11T08:22:54.102Z,67281.88
2023-06-11T08:27:58.700Z,67311.56
2023-06-11T08:33:04.180Z,67261.75
2023-06-11T08:38:10.123Z,67382.97
2023-06-11T08:43:15.218Z,67349.38
2023-06-11T08:48:22.640Z,67370.56
2023-06-11T08:53:29.552Z,67381.78
2023-06-11T08:58:37.255Z,67497.16
2023-06-11T09:03:41.910Z,67480.19
2023-06-11T09:08:59.629Z,67450.97
2023-06-11T09:14:04.650Z,67371.53
2023-06-11T09:19:09.138Z,67415.31
2023-06-11T09:24:15.109Z,67417.47
2023-06-11T09:29:19.512Z,67473.28
2023-06-11T09:34:25.178Z,67510.97
2023-06-11T09:39:32.016Z,67551.72
2023-06-11T09:44:36.386Z,67446.78
2023-06-11T09:49:42.200Z,67558.22
2023-06-11T09:54:51.929Z,67596.03
2023-06-11T09:59:56.996Z,67559.69
2023-06-11T10:05:01.429Z,67552.69
2023-06-11T10:10:10.959Z,67645.84
2023-06-11T10:15:18.672Z,67560.31
2023-06-11T10:20:28.679Z,67521.91
2023-06-11T10:25:39.173Z,67538.16
2023-06-11T10:30:54.435Z,67483.00
2023-06-11T10:36:03.335Z,67484.53
2023-06-11T10:41:09.158Z,67572.75
2023-06-11T10:46:21.007Z,67586.88
2023-06-11T10:51:26.000Z,67515.44
2023-06-11T10:56:31.872Z,67568.94
2023-06-11T11:01:36.272Z,67512.72
2023-06-11T11:06:44.732Z,67379.25
2023-06-11T11:11:50.752Z,67426.25
2023-06-11T11:16:55.183Z,67466.63
2023-06-11T11:22:00.203Z,67421.28
2023-06-11T11:27:08.132Z,67328.91
2023-06-11T11:32:12.577Z,67413.81
2023-06-11T11:37:17.793Z,67518.13
2023-06-11T11:42:24.774Z,67817.59
2023-06-11T11:47:29.813Z,67507.38
2023-06-11T11:52:39.154Z,67359.22
2023-06-11T11:57:44.811Z,67390.91
2023-06-11T12:02:49.906Z,67308.22
2023-06-11T12:07:54.644Z,67317.47
2023-06-11T12:13:00.214Z,67607.47
2023-06-11T12:18:07.568Z,67596.59
2023-06-11T12:23:11.851Z,67538.09
2023-06-11T12:28:19.739Z,67573.31
2023-06-11T12:33:24.133Z,67635.00
2023-06-11T12:38:29.477Z,67539.81
2023-06-11T12:43:35.113Z,67559.78
2023-06-11T12:48:39.608Z,67563.50
2023-06-11T12:53:44.243Z,67576.03
2023-06-11T12:58:49.990Z,67462.91
2023-06-11T13:03:54.270Z,67521.25
2023-06-11T13:08:58.641Z,67622.56
2023-06-11T13:14:04.413Z,67710.28
2023-06-11T13:19:09.295Z,67741.19
2023-06-11T13:24:13.559Z,67726.06
2023-06-11T13:29:21.050Z,67614.41
2023-06-11T13:34:25.331Z,67537.59
2023-06-11T13:39:29.696Z,67656.22
2023-06-11T13:44:35.397Z,67585.78
2023-06-11T13:49:39.768Z,67623.13
2023-06-11T13:54:44.357Z,67500.75
2023-06-11T13:59:49.908Z,67547.28
2023-06-11T14:04:54.664Z,67429.44
2023-06-11T14:09:58.903Z,67349.47
2023-06-11T14:15:05.118Z,67284.59
2023-06-11T14:20:10.543Z,67275.88
2023-06-11T14:25:16.542Z,67326.72
2023-06-11T14:30:22.412Z,67487.75
2023-06-11T14:35:26.517Z,67556.41
2023-06-11T14:40:30.862Z,67550.00
2023-06-11T14:45:38.097Z,67607.47
2023-06-11T14:50:43.528Z,67608.50
2023-06-11T14:55:50.056Z,67578.84
2023-06-11T15:00:55.639Z,67540.31
2023-06-11T15:06:01.143Z,67730.31
2023-06-11T15:11:08.809Z,67792.00
2023-06-11T15:16:15.686Z,67564.09
2023-06-11T15:21:19.979Z,67455.91
2023-06-11T15:26:24.562Z,67303.94
2023-06-11T15:31:30.630Z,67435.50
2023-06-11T15:36:34.712Z,67435.25
2023-06-11T15:41:39.052Z,67426.13
2023-06-11T15:46:44.689Z,67355.31
2023-06-11T15:51:49.491Z,67373.13
2023-06-11T15:56:53.800Z,67251.09
2023-06-11T16:02:02.341Z,67213.81
2023-06-11T16:07:08.322Z,67244.69
2023-06-11T16:12:13.056Z,67245.63
2023-06-11T16:17:18.671Z,67184.19
2023-06-11T16:22:23.111Z,67124.09
2023-06-11T16:27:27.490Z,67072.38
2023-06-11T16:32:33.193Z,67063.66
2023-06-11T16:37:37.431Z,67082.69
2023-06-11T16:42:41.650Z,67076.59
2023-06-11T16:47:47.580Z,67085.84
2023-06-11T16:52:53.119Z,67126.84
2023-06-11T16:57:58.257Z,67051.34
2023-06-11T17:03:04.053Z,67021.13
2023-06-11T17:08:08.378Z,66990.44
2023-06-11T17:13:12.420Z,66964.66
2023-06-11T17:18:18.078Z,66953.34
2023-06-11T17:23:22.427Z,66947.88
2023-06-11T17:28:26.587Z,66963.50
2023-06-11T17:33:32.109Z,66941.34
2023-06-11T17:38:36.210Z,66920.31
2023-06-11T17:43:40.810Z,66939.19
2023-06-11T17:48:46.489Z,67007.56
2023-06-11T17:53:50.887Z,66995.84
2023-06-11T17:58:55.271Z,67013.72
2023-06-11T18:04:00.822Z,67014.09
2023-06-11T18:09:04.716Z,66997.94
2023-06-11T18:14:09.590Z,66952.66
2023-06-11T18:19:16.479Z,66913.38
2023-06-11T18:24:20.474Z,66911.16
2023-06-11T18:29:27.113Z,66884.38
2023-06-11T18:34:33.945Z,66886.44
2023-06-11T18:39:38.337Z,66878.97
2023-06-11T18:44:45.271Z,66876.22
2023-06-11T18:49:51.128Z,66867.44
2023-06-11T18:54:55.320Z,66848.81
2023-06-11T18:59:59.548Z,66857.38
2023-06-11T19:05:05.717Z,66829.91
2023-06-11T19:10:12.383Z,66818.06
2023-06-11T19:15:16.911Z,66850.28
2023-06-11T19:20:22.558Z,66843.28
2023-06-11T19:25:26.489Z,66812.66
2023-06-11T19:30:31.100Z,66836.81
2023-06-11T19:35:36.963Z,66802.94
2023-06-11T19:40:41.350Z,66806.66
2023-06-11T19:45:45.509Z,66817.44
2023-06-11T19:50:52.109Z,66874.59
2023-06-11T19:55:56.504Z,66816.81
2023-06-11T20:01:00.631Z,66825.50
2023-06-11T20:06:06.309Z,66838.44
2023-06-11T20:11:12.018Z,66833.06
2023-06-11T20:16:16.553Z,66817.44
2023-06-11T20:21:23.755Z,66784.56
2023-06-11T20:26:27.963Z,66758.81
2023-06-11T20:31:32.216Z,66792.13
2023-06-11T20:36:37.898Z,66745.28
2023-06-11T20:41:41.709Z,66722.69
2023-06-11T20:46:46.283Z,66737.59
2023-06-11T20:51:52.028Z,66724.31
2023-06-11T20:56:56.526Z,66734.00
2023-06-11T21:02:01.807Z,66734.06
2023-06-11T21:07:08.208Z,66752.44
2023-06-11T21:12:18.557Z,66765.81
2023-06-11T21:17:22.733Z,66794.34
2023-06-11T21:22:28.325Z,66762.13
2023-06-11T21:27:32.473Z,66681.16
2023-06-11T21:32:36.702Z,66702.69
2023-06-11T21:37:42.168Z,66673.78
2023-06-11T21:42:46.460Z,66689.44
2023-06-11T21:47:50.888Z,66656.13
2023-06-11T21:52:57.117Z,66657.75
2023-06-11T21:58:04.405Z,66625.25
2023-06-11T22:03:08.709Z,66608.72
2023-06-11T22:08:14.972Z,66609.28
2023-06-11T22:13:19.526Z,66576.94
2023-06-11T22:18:29.545Z,66597.88
2023-06-11T22:23:50.257Z,66578.09
2023-06-11T22:28:55.828Z,66578.09
2023-06-11T22:34:00.289Z,66530.16
2023-06-11T22:39:06.276Z,66500.06
2023-06-11T22:44:10.448Z,66494.63
2023-06-11T22:49:15.139Z,66483.41
2023-06-11T22:54:20.595Z,66515.75
2023-06-11T22:59:24.864Z,66522.63
2023-06-11T23:04:29.791Z,66479.13
2023-06-11T23:09:35.597Z,66443.16
2023-06-11T23:14:40.160Z,66449.59
2023-06-11T23:19:44.743Z,66425.44
2023-06-11T23:24:50.983Z,66479.66
2023-06-11T23:29:55.215Z,66415.22
2023-06-11T23:35:01.256Z,66413.09
2023-06-11T23:40:09.633Z,66426.44
2023-06-11T23:45:14.248Z,66452.72
2023-06-11T23:50:18.505Z,66418.00
2023-06-11T23:55:24.244Z,66417.56
